createdAt,value
2022-12-26T00:00:00.763Z,68.65
2022-12-26T00:02:27.580Z,68.65
2022-12-26T00:04:54.450Z,68.69
2022-12-26T00:07:21.305Z,68.11
2022-12-26T00:09:47.995Z,67.98
2022-12-26T00:12:14.637Z,68.11
2022-12-26T00:14:41.333Z,67.68
2022-12-26T00:17:07.943Z,67.88
2022-12-26T00:19:34.543Z,68.21
2022-12-26T00:22:01.109Z,67.69
2022-12-26T00:24:27.746Z,67.73
2022-12-26T00:26:54.314Z,67.63
2022-12-26T00:29:20.919Z,67.67
2022-12-26T00:31:47.735Z,68.12
2022-12-26T00:34:14.352Z,67.56
2022-12-26T00:36:40.940Z,67.48
2022-12-26T00:39:07.624Z,68.38
2022-12-26T00:41:34.233Z,68.21
2022-12-26T00:44:00.854Z,68.22
2022-12-26T00:46:28.057Z,67.93
2022-12-26T00:48:54.816Z,68.45
2022-12-26T00:51:22.216Z,68.47
2022-12-26T00:53:48.985Z,67.68
2022-12-26T00:56:16.206Z,68.61
2022-12-26T00:58:42.849Z,68.81
2022-12-26T01:01:14.692Z,68.66
2022-12-26T01:03:41.893Z,69.00
2022-12-26T01:06:08.598Z,68.80
2022-12-26T01:08:35.256Z,68.85
2022-12-26T01:11:07.827Z,69.23
2022-12-26T01:13:34.607Z,69.36
2022-12-26T01:16:02.257Z,69.11
2022-12-26T01:18:28.970Z,68.89
2022-12-26T01:21:05.690Z,69.50
2022-12-26T01:23:32.374Z,69.04
2022-12-26T01:26:16.980Z,69.25
2022-12-26T01:28:45.533Z,68.99
2022-12-26T01:31:12.198Z,69.62
2022-12-26T01:33:38.804Z,69.72
2022-12-26T01:36:05.797Z,69.60
2022-12-26T01:38:32.375Z,69.57
2022-12-26T01:41:17.590Z,69.66
2022-12-26T01:43:53.504Z,69.88
2022-12-26T01:46:26.041Z,70.35
2022-12-26T01:48:54.224Z,70.44
2022-12-26T01:51:25.289Z,69.78
2022-12-26T01:53:56.219Z,70.64
2022-12-26T01:56:45.777Z,70.79
2022-12-26T01:59:19.295Z,70.49
2022-12-26T02:01:50.316Z,70.85
2022-12-26T02:04:40.616Z,71.08
2022-12-26T02:07:07.779Z,71.80
2022-12-26T02:09:35.124Z,71.36
2022-12-26T02:12:34.934Z,71.70
2022-12-26T02:15:15.400Z,72.48
2022-12-26T02:17:42.574Z,72.69
2022-12-26T02:20:29.274Z,72.71
2022-12-26T02:22:55.834Z,72.45
2022-12-26T02:25:40.931Z,73.03
2022-12-26T02:28:28.875Z,72.90
2022-12-26T02:31:19.414Z,73.48
2022-12-26T02:34:04.436Z,73.67
2022-12-26T02:36:30.946Z,73.75
2022-12-26T02:38:57.458Z,73.92
2022-12-26T02:41:31.573Z,74.14
2022-12-26T02:44:48.664Z,73.98
2022-12-26T02:47:22.105Z,74.13
2022-12-26T02:50:07.242Z,73.79
2022-12-26T02:53:24.151Z,74.59
2022-12-26T02:56:16.064Z,73.91
2022-12-26T02:59:20.605Z,73.89
2022-12-26T03:02:38.212Z,74.01
2022-12-26T03:05:48.586Z,74.04
2022-12-26T03:08:41.158Z,73.71
2022-12-26T03:11:26.471Z,73.76
2022-12-26T03:13:54.549Z,73.71
2022-12-26T03:16:42.271Z,73.58
2022-12-26T03:19:12.271Z,74.19
2022-12-26T03:21:45.182Z,74.34
2022-12-26T03:24:14.358Z,74.26
2022-12-26T03:26:48.813Z,73.78
2022-12-26T03:29:56.826Z,73.79
2022-12-26T03:32:23.398Z,74.23
2022-12-26T03:34:49.962Z,73.78
2022-12-26T03:37:47.513Z,73.69
2022-12-26T03:40:47.212Z,73.96
2022-12-26T03:43:55.126Z,74.09
2022-12-26T03:47:13.949Z,73.40
2022-12-26T03:50:05.399Z,74.03
2022-12-26T03:53:22.377Z,73.27
2022-12-26T03:56:33.181Z,73.36
2022-12-26T03:59:28.091Z,74.19
2022-12-26T04:02:16.416Z,73.25
2022-12-26T04:05:24.701Z,74.03
2022-12-26T04:08:19.192Z,73.77
2022-12-26T04:11:12.172Z,73.91
2022-12-26T04:14:09.609Z,73.93
2022-12-26T04:16:57.566Z,73.95
2022-12-26T04:19:52.642Z,73.88
2022-12-26T04:22:50.959Z,73.65
2022-12-26T04:25:50.130Z,73.98
2022-12-26T04:28:38.220Z,73.72
2022-12-26T04:31:34.864Z,74.10
2022-12-26T04:34:25.808Z,74.50
2022-12-26T04:37:20.890Z,74.42
2022-12-26T04:40:10.259Z,74.49
2022-12-26T04:42:57.587Z,74.48
2022-12-26T04:45:25.216Z,74.30
2022-12-26T04:48:10.470Z,74.20
2022-12-26T04:50:37.106Z,75.00
2022-12-26T04:53:03.702Z,74.63
2022-12-26T04:55:33.282Z,74.90
2022-12-26T04:58:00.208Z,75.43
2022-12-26T05:00:28.259Z,75.54
2022-12-26T05:03:19.006Z,76.25
2022-12-26T05:06:07.063Z,76.96
2022-12-26T05:08:52.282Z,76.97
2022-12-26T05:11:18.851Z,77.02
2022-12-26T05:13:45.405Z,77.28
2022-12-26T05:16:30.387Z,77.96
2022-12-26T05:19:15.623Z,77.50
2022-12-26T05:22:01.689Z,78.38
2022-12-26T05:24:56.179Z,78.34
2022-12-26T05:27:42.089Z,79.20
2022-12-26T05:30:09.569Z,79.48
2022-12-26T05:32:54.536Z,80.10
2022-12-26T05:35:21.186Z,79.81
2022-12-26T05:37:47.806Z,79.95
2022-12-26T05:40:14.439Z,80.21
2022-12-26T05:42:41.273Z,80.27
2022-12-26T05:45:09.124Z,81.42
2022-12-26T05:47:35.763Z,81.37
2022-12-26T05:50:02.835Z,81.88
2022-12-26T05:52:29.533Z,82.01
2022-12-26T05:54:56.164Z,81.90
2022-12-26T05:57:23.002Z,82.68
2022-12-26T05:59:49.758Z,82.78
2022-12-26T06:02:16.551Z,82.84
2022-12-26T06:04:43.206Z,82.21
2022-12-26T06:07:09.828Z,81.09
2022-12-26T06:09:36.519Z,81.02
2022-12-26T06:12:03.379Z,80.85
2022-12-26T06:14:30.092Z,81.12
2022-12-26T06:16:56.653Z,82.23
2022-12-26T06:19:23.240Z,81.82
2022-12-26T06:21:49.814Z,82.20
2022-12-26T06:24:16.414Z,81.77
2022-12-26T06:26:42.991Z,82.00
2022-12-26T06:29:09.887Z,81.98
2022-12-26T06:31:36.860Z,82.48
2022-12-26T06:34:03.682Z,81.58
2022-12-26T06:36:30.432Z,81.45
2022-12-26T06:38:58.032Z,82.12
2022-12-26T06:41:25.294Z,82.44
2022-12-26T06:43:52.715Z,82.05
2022-12-26T06:46:21.997Z,81.22
2022-12-26T06:48:49.015Z,81.21
2022-12-26T06:51:20.276Z,81.40
2022-12-26T06:53:47.499Z,80.94
2022-12-26T06:56:23.393Z,80.61
2022-12-26T06:58:58.230Z,79.73
2022-12-26T07:01:26.194Z,80.40
2022-12-26T07:03:54.799Z,80.41
2022-12-26T07:06:30.732Z,79.55
2022-12-26T07:09:00.645Z,79.27
2022-12-26T07:11:30.670Z,80.08
2022-12-26T07:13:57.686Z,80.96
2022-12-26T07:16:25.270Z,80.76
2022-12-26T07:18:54.218Z,81.60
2022-12-26T07:21:21.680Z,82.12
2022-12-26T07:23:48.413Z,82.24
2022-12-26T07:26:15.032Z,83.02
2022-12-26T07:28:41.690Z,82.60
2022-12-26T07:31:08.479Z,82.75
2022-12-26T07:33:35.581Z,83.63
2022-12-26T07:36:06.504Z,84.09
2022-12-26T07:38:34.267Z,83.28
2022-12-26T07:41:21.062Z,83.56
2022-12-26T07:43:47.615Z,84.25
2022-12-26T07:46:14.242Z,83.67
2022-12-26T07:48:40.875Z,83.61
2022-12-26T07:51:07.531Z,84.63
2022-12-26T07:53:34.146Z,83.99
2022-12-26T07:56:01.220Z,84.60
2022-12-26T07:58:28.147Z,84.51
2022-12-26T08:00:54.819Z,84.42
2022-12-26T08:03:21.678Z,84.91
2022-12-26T08:05:49.308Z,84.20
2022-12-26T08:08:16.213Z,84.61
2022-12-26T08:10:43.165Z,85.08
2022-12-26T08:13:10.902Z,84.91
2022-12-26T08:15:40.957Z,84.86
2022-12-26T08:18:07.980Z,84.75
2022-12-26T08:20:34.593Z,84.81
2022-12-26T08:23:01.143Z,84.78
2022-12-26T08:25:28.078Z,84.89
2022-12-26T08:27:54.786Z,84.80
2022-12-26T08:30:21.383Z,85.08
2022-12-26T08:32:48.079Z,84.81
2022-12-26T08:35:14.834Z,84.32
2022-12-26T08:37:41.581Z,84.79
2022-12-26T08:40:08.717Z,85.52
2022-12-26T08:42:44.694Z,85.77
2022-12-26T08:45:22.268Z,85.51
2022-12-26T08:47:48.834Z,85.43
2022-12-26T08:50:16.232Z,85.13
2022-12-26T08:52:43.480Z,84.46
2022-12-26T08:55:10.370Z,84.65
2022-12-26T08:57:37.827Z,84.80
2022-12-26T09:00:05.732Z,84.79
2022-12-26T09:02:32.758Z,84.37
2022-12-26T09:04:59.419Z,84.99
2022-12-26T09:07:26.035Z,84.27
2022-12-26T09:09:53.717Z,84.30
2022-12-26T09:12:20.341Z,84.63
2022-12-26T09:14:50.219Z,83.84
2022-12-26T09:17:17.176Z,84.42
2022-12-26T09:19:43.806Z,83.76
2022-12-26T09:22:33.466Z,84.04
2022-12-26T09:25:01.888Z,83.43
2022-12-26T09:27:29.484Z,83.71
2022-12-26T09:29:56.081Z,83.40
2022-12-26T09:32:22.972Z,83.29
2022-12-26T09:34:49.769Z,83.35
2022-12-26T09:37:16.432Z,83.05
2022-12-26T09:39:43.014Z,83.61
2022-12-26T09:42:28.429Z,83.08
2022-12-26T09:45:15.299Z,82.94
2022-12-26T09:48:19.607Z,82.66
2022-12-26T09:50:50.660Z,82.48
2022-12-26T09:53:26.039Z,82.14
2022-12-26T09:56:10.774Z,82.66
2022-12-26T09:58:45.155Z,82.96
2022-12-26T10:01:20.891Z,82.21
2022-12-26T10:03:56.424Z,82.09
2022-12-26T10:06:25.859Z,81.48
2022-12-26T10:09:18.508Z,81.04
2022-12-26T10:12:03.736Z,80.64
2022-12-26T10:15:01.263Z,80.46
2022-12-26T10:17:52.450Z,80.61
2022-12-26T10:20:37.339Z,80.34
2022-12-26T10:23:15.005Z,80.09
2022-12-26T10:25:47.183Z,79.44
2022-12-26T10:28:44.158Z,79.00
2022-12-26T10:31:21.153Z,79.13
2022-12-26T10:33:54.158Z,79.03
2022-12-26T10:36:35.301Z,79.61
2022-12-26T10:39:06.014Z,79.09
2022-12-26T10:42:01.299Z,78.25
2022-12-26T10:44:28.261Z,78.38
2022-12-26T10:47:09.930Z,78.29
2022-12-26T10:49:36.731Z,77.27
2022-12-26T10:52:04.347Z,78.42
2022-12-26T10:54:31.449Z,78.04
2022-12-26T10:56:59.285Z,78.25
2022-12-26T10:59:55.557Z,79.06
2022-12-26T11:02:32.556Z,79.13
2022-12-26T11:05:27.209Z,79.19
2022-12-26T11:07:57.474Z,78.18
2022-12-26T11:10:29.503Z,78.00
2022-12-26T11:12:59.337Z,78.76
2022-12-26T11:15:41.929Z,77.62
2022-12-26T11:18:32.230Z,77.73
2022-12-26T11:21:32.375Z,78.66
2022-12-26T11:24:20.201Z,78.45
2022-12-26T11:26:47.248Z,77.87
2022-12-26T11:29:22.243Z,77.65
2022-12-26T11:32:00.136Z,76.83
2022-12-26T11:34:36.499Z,77.06
2022-12-26T11:37:06.079Z,77.71
2022-12-26T11:39:38.037Z,77.37
2022-12-26T11:42:12.794Z,76.81
2022-12-26T11:44:45.431Z,76.66
2022-12-26T11:47:15.004Z,76.19
2022-12-26T11:50:03.779Z,76.25
2022-12-26T11:52:56.621Z,75.69
2022-12-26T11:55:26.541Z,75.39
2022-12-26T11:58:08.114Z,74.76
2022-12-26T12:00:50.679Z,75.61
2022-12-26T12:03:58.788Z,74.51
2022-12-26T12:06:40.065Z,74.25
2022-12-26T12:09:33.118Z,74.08
2022-12-26T12:12:17.149Z,73.84
2022-12-26T12:14:55.328Z,74.50
2022-12-26T12:17:55.558Z,74.67
2022-12-26T12:20:56.114Z,74.20
2022-12-26T12:23:32.143Z,73.93
2022-12-26T12:26:10.189Z,74.23
2022-12-26T12:29:10.883Z,73.83
2022-12-26T12:31:55.905Z,74.19
2022-12-26T12:34:25.225Z,73.47
2022-12-26T12:37:16.199Z,74.25
2022-12-26T12:40:01.454Z,74.63
2022-12-26T12:42:39.999Z,73.80
2022-12-26T12:45:19.159Z,74.11
2022-12-26T12:48:10.216Z,74.51
2022-12-26T12:50:57.104Z,74.62
2022-12-26T12:53:37.510Z,74.24
2022-12-26T12:56:41.946Z,74.21
2022-12-26T12:59:47.230Z,74.94
2022-12-26T13:02:26.936Z,74.63
2022-12-26T13:05:18.036Z,75.19
2022-12-26T13:07:52.156Z,74.69
2022-12-26T13:10:35.151Z,73.91
2022-12-26T13:13:18.532Z,74.42
2022-12-26T13:15:49.425Z,74.57
2022-12-26T13:18:20.651Z,74.76
2022-12-26T13:21:06.345Z,74.92
2022-12-26T13:23:54.557Z,73.71
2022-12-26T13:26:27.101Z,73.97
2022-12-26T13:29:06.521Z,74.01
2022-12-26T13:31:35.697Z,74.20
2022-12-26T13:34:04.671Z,73.97
2022-12-26T13:36:42.484Z,74.14
2022-12-26T13:39:27.443Z,74.30
2022-12-26T13:42:28.040Z,73.73
2022-12-26T13:44:55.004Z,74.27
2022-12-26T13:47:42.028Z,74.79
2022-12-26T13:50:49.938Z,75.16
2022-12-26T13:53:25.995Z,76.50
2022-12-26T13:55:58.016Z,77.08
2022-12-26T13:58:30.430Z,77.45
2022-12-26T14:01:17.274Z,78.27
2022-12-26T14:04:02.056Z,77.44
2022-12-26T14:06:49.841Z,77.87
2022-12-26T14:09:22.285Z,79.58
2022-12-26T14:11:59.719Z,80.08
2022-12-26T14:14:58.915Z,79.88
2022-12-26T14:17:56.163Z,80.03
2022-12-26T14:20:41.716Z,80.79
2022-12-26T14:23:29.978Z,80.87
2022-12-26T14:26:11.117Z,80.47
2022-12-26T14:28:58.103Z,80.41
2022-12-26T14:31:36.833Z,81.00
2022-12-26T14:34:27.915Z,81.35
2022-12-26T14:37:10.756Z,80.53
2022-12-26T14:40:01.086Z,80.96
2022-12-26T14:42:48.569Z,80.66
2022-12-26T14:45:20.998Z,80.32
2022-12-26T14:47:49.640Z,80.95
2022-12-26T14:50:39.838Z,81.30
2022-12-26T14:53:25.028Z,80.68
2022-12-26T14:56:15.860Z,81.06
2022-12-26T14:58:48.894Z,81.82
2022-12-26T15:01:15.756Z,81.14
2022-12-26T15:03:52.190Z,80.99
2022-12-26T15:06:18.759Z,81.06
2022-12-26T15:08:48.394Z,81.23
2022-12-26T15:11:51.957Z,81.44
2022-12-26T15:14:37.461Z,80.58
2022-12-26T15:17:27.997Z,80.58
2022-12-26T15:20:13.237Z,80.38
2022-12-26T15:22:46.266Z,80.65
2022-12-26T15:25:28.185Z,80.38
2022-12-26T15:27:57.471Z,81.24
2022-12-26T15:30:51.148Z,80.67
2022-12-26T15:33:58.791Z,75.96
2022-12-26T15:36:37.560Z,76.04
2022-12-26T15:39:15.940Z,79.75
2022-12-26T15:41:58.224Z,81.64
2022-12-26T15:44:27.504Z,83.03
2022-12-26T15:47:16.200Z,83.26
2022-12-26T15:49:53.874Z,84.59
2022-12-26T15:52:59.044Z,84.74
2022-12-26T15:55:47.469Z,84.96
2022-12-26T15:58:29.229Z,85.70
2022-12-26T16:00:56.193Z,86.08
2022-12-26T16:03:58.199Z,85.86
2022-12-26T16:06:36.842Z,86.54
2022-12-26T16:09:22.098Z,86.68
2022-12-26T16:11:57.960Z,86.68
2022-12-26T16:14:26.457Z,86.95
2022-12-26T16:16:53.306Z,87.24
2022-12-26T16:19:27.237Z,87.01
2022-12-26T16:22:21.453Z,86.49
2022-12-26T16:24:51.500Z,86.72
2022-12-26T16:27:24.644Z,86.59
2022-12-26T16:30:02.090Z,86.36
2022-12-26T16:32:36.742Z,86.62
2022-12-26T16:35:04.542Z,86.27
2022-12-26T16:37:32.227Z,86.20
2022-12-26T16:40:32.887Z,86.03
2022-12-26T16:42:59.494Z,86.18
2022-12-26T16:45:27.850Z,86.19
2022-12-26T16:47:55.131Z,86.26
2022-12-26T16:50:25.569Z,86.15
2022-12-26T16:53:34.047Z,85.98
2022-12-26T16:56:26.584Z,85.65
2022-12-26T16:59:17.809Z,85.85
2022-12-26T17:02:03.139Z,85.05
2022-12-26T17:04:30.644Z,84.86
2022-12-26T17:07:07.149Z,84.95
2022-12-26T17:09:44.806Z,84.61
2022-12-26T17:12:22.711Z,84.94
2022-12-26T17:14:51.211Z,84.95
2022-12-26T17:17:23.738Z,85.08
2022-12-26T17:19:54.315Z,84.87
2022-12-26T17:22:37.432Z,84.64
2022-12-26T17:25:30.367Z,84.46
2022-12-26T17:28:09.542Z,83.97
2022-12-26T17:30:41.684Z,83.51
2022-12-26T17:33:19.427Z,83.52
2022-12-26T17:38:44.576Z,83.73
2022-12-26T17:41:16.072Z,83.12
2022-12-26T17:43:43.692Z,83.32
2022-12-26T17:46:14.320Z,83.24
2022-12-26T17:48:42.043Z,82.93
2022-12-26T17:51:14.873Z,82.91
2022-12-26T17:53:46.910Z,82.28
2022-12-26T17:56:16.897Z,81.89
2022-12-26T17:58:43.896Z,81.10
2022-12-26T18:01:12.773Z,80.89
2022-12-26T18:03:43.011Z,80.08
2022-12-26T18:06:13.836Z,80.43
2022-12-26T18:08:41.545Z,79.47
2022-12-26T18:11:11.224Z,79.04
2022-12-26T18:13:38.510Z,78.66
2022-12-26T18:16:06.178Z,78.39
2022-12-26T18:18:38.299Z,78.46
2022-12-26T18:21:07.283Z,77.88
2022-12-26T18:23:33.845Z,77.50
2022-12-26T18:26:03.725Z,77.91
2022-12-26T18:28:30.345Z,77.61
2022-12-26T18:30:58.106Z,77.67
2022-12-26T18:33:25.344Z,77.56
2022-12-26T18:35:52.079Z,77.72
2022-12-26T18:38:20.720Z,77.64
2022-12-26T18:40:50.698Z,77.57
2022-12-26T18:43:18.037Z,76.85
2022-12-26T18:45:44.722Z,76.89
2022-12-26T18:48:16.529Z,76.35
2022-12-26T18:50:43.878Z,75.99
2022-12-26T18:53:10.786Z,75.26
2022-12-26T18:55:37.611Z,75.08
2022-12-26T18:58:04.318Z,74.03
2022-12-26T19:00:31.003Z,73.94
2022-12-26T19:02:57.684Z,73.42
2022-12-26T19:05:30.945Z,73.70
2022-12-26T19:07:59.023Z,73.44
2022-12-26T19:10:31.709Z,73.03
2022-12-26T19:13:05.578Z,72.02
2022-12-26T19:15:34.996Z,72.10
2022-12-26T19:18:03.063Z,72.40
2022-12-26T19:20:30.167Z,72.03
2022-12-26T19:22:57.183Z,71.75
2022-12-26T19:25:25.742Z,71.61
2022-12-26T19:27:52.814Z,71.64
2022-12-26T19:30:20.351Z,71.90
2022-12-26T19:32:47.155Z,71.08
2022-12-26T19:35:15.315Z,70.93
2022-12-26T19:37:42.428Z,71.19
2022-12-26T19:40:11.165Z,70.95
2022-12-26T19:42:38.501Z,71.42
2022-12-26T19:45:06.633Z,71.66
2022-12-26T19:47:34.447Z,71.68
2022-12-26T19:50:01.502Z,72.40
2022-12-26T19:52:28.117Z,72.72
2022-12-26T19:54:54.765Z,72.69
2022-12-26T19:57:23.268Z,72.70
2022-12-26T19:59:50.695Z,72.99
2022-12-26T20:02:17.469Z,73.38
2022-12-26T20:04:44.216Z,73.60
2022-12-26T20:07:10.787Z,73.50
2022-12-26T20:09:37.414Z,73.99
2022-12-26T20:12:04.169Z,73.77
2022-12-26T20:14:32.655Z,74.04
2022-12-26T20:17:06.003Z,74.26
2022-12-26T20:19:34.409Z,73.76
2022-12-26T20:22:01.006Z,73.91
2022-12-26T20:24:27.540Z,73.85
2022-12-26T20:26:54.298Z,73.88
2022-12-26T20:29:20.905Z,73.50
2022-12-26T20:31:47.661Z,73.51
2022-12-26T20:34:14.362Z,73.42
2022-12-26T20:36:41.984Z,73.22
2022-12-26T20:39:12.816Z,73.30
2022-12-26T20:41:39.451Z,73.34
2022-12-26T20:44:06.285Z,73.42
2022-12-26T20:46:34.764Z,73.32
2022-12-26T20:49:02.546Z,73.85
2022-12-26T20:51:36.831Z,73.67
2022-12-26T20:54:05.393Z,74.09
2022-12-26T20:56:31.982Z,73.95
2022-12-26T20:58:59.712Z,74.18
2022-12-26T21:01:28.084Z,74.80
2022-12-26T21:03:55.820Z,74.62
2022-12-26T21:06:28.481Z,75.04
2022-12-26T21:08:56.544Z,75.07
2022-12-26T21:11:29.640Z,75.24
2022-12-26T21:13:59.147Z,75.18
2022-12-26T21:16:37.249Z,75.70
2022-12-26T21:19:08.039Z,75.45
2022-12-26T21:21:41.127Z,75.91
2022-12-26T21:24:12.195Z,76.33
2022-12-26T21:26:40.439Z,75.96
2022-12-26T21:29:09.260Z,76.35
2022-12-26T21:31:37.340Z,76.51
2022-12-26T21:34:04.526Z,76.39
2022-12-26T21:36:31.439Z,77.35
2022-12-26T21:38:58.383Z,77.21
2022-12-26T21:41:25.612Z,77.67
2022-12-26T21:43:54.588Z,77.99
2022-12-26T21:46:21.689Z,77.88
2022-12-26T21:48:49.928Z,78.44
2022-12-26T21:51:18.011Z,78.89
2022-12-26T21:53:45.379Z,79.24
2022-12-26T21:56:14.250Z,79.60
2022-12-26T21:59:00.195Z,79.92
2022-12-26T22:01:27.713Z,79.79
2022-12-26T22:04:13.880Z,80.21
2022-12-26T22:06:41.457Z,80.13
2022-12-26T22:09:09.293Z,80.24
2022-12-26T22:11:54.574Z,79.85
2022-12-26T22:14:21.769Z,80.46
2022-12-26T22:16:52.755Z,79.98
2022-12-26T22:19:19.423Z,80.11
2022-12-26T22:21:45.967Z,79.88
2022-12-26T22:24:12.623Z,80.23
2022-12-26T22:26:39.197Z,80.17
2022-12-26T22:29:05.735Z,80.53
2022-12-26T22:31:34.422Z,80.15
2022-12-26T22:34:07.641Z,80.40
2022-12-26T22:36:35.019Z,80.41
2022-12-26T22:39:01.784Z,80.46
2022-12-26T22:41:29.280Z,80.59
2022-12-26T22:43:56.053Z,80.69
2022-12-26T22:46:22.808Z,80.63
2022-12-26T22:48:49.799Z,80.90
2022-12-26T22:51:23.847Z,80.58
2022-12-26T22:53:54.487Z,80.89
2022-12-26T22:56:21.171Z,80.66
2022-12-26T22:58:47.918Z,80.92
2022-12-26T23:01:17.587Z,80.85
2022-12-26T23:03:44.475Z,81.08
2022-12-26T23:06:32.634Z,81.02
2022-12-26T23:09:02.122Z,80.88
2022-12-26T23:11:34.785Z,80.90
2022-12-26T23:14:03.556Z,80.91
2022-12-26T23:16:39.214Z,81.05
2022-12-26T23:19:39.267Z,80.57
2022-12-26T23:22:06.104Z,80.96
2022-12-26T23:24:33.179Z,81.04
2022-12-26T23:27:24.520Z,81.02
2022-12-26T23:30:10.484Z,80.88
2022-12-26T23:32:38.855Z,80.91
2022-12-26T23:35:07.122Z,80.47
2022-12-26T23:37:33.822Z,80.89
2022-12-26T23:40:00.357Z,80.72
2022-12-26T23:42:26.965Z,80.95
2022-12-26T23:44:53.611Z,80.69
2022-12-26T23:47:20.152Z,81.10
2022-12-26T23:49:46.676Z,81.36
2022-12-26T23:52:13.244Z,80.59
2022-12-26T23:54:39.811Z,80.68
2022-12-26T23:57:06.381Z,80.97
2022-12-26T23:59:32.946Z,81.05
